Terminal Aerodrome Forecast
Issued by NWS

Home | Current Version | Previous Version | Text Only | Print | Product List | Glossary On
Versions: 1 2 3 4 5 6 7 8 9 10 11 12 13 14 15 16 17 18 19 20 21 22 23 24 25 26 27 28 29 30 31 32 33 34 35 36 37 38 39 40 41 42 43 44 45 46 47 48 49 50
000
FTUS44 KLIX 212349
TAFASD
TAF
KASD 212349Z 2200/2224 13009G15KT P6SM BKN019 OVC026
     FM220600 12006KT P6SM OVC025
     FM221200 13007KT P6SM VCSH BKN012 OVC030
     FM221300 16010KT 5SM -SHRA VCTS BKN012 OVC022CB
     FM221700 18010KT 6SM -SHRA BKN015 OVC025
     FM221900 20010KT P6SM VCSH BKN035
     FM222200 21009KT P6SM BKN030=

USA.gov is the U.S. government's official web portal to all federal, state and local government web resources and services.